createdAt,value
2023-03-05T00:00:49.836Z,999.69
2023-03-05T00:01:49.840Z,999.69
2023-03-05T00:02:49.932Z,999.67
2023-03-05T00:03:49.873Z,999.71
2023-03-05T00:04:49.831Z,999.66
2023-03-05T00:05:49.778Z,999.71
2023-03-05T00:06:49.806Z,999.69
2023-03-05T00:07:49.781Z,999.69
2023-03-05T00:08:49.747Z,999.68
2023-03-05T00:09:49.750Z,999.69
2023-03-05T00:10:49.748Z,999.70
2023-03-05T00:11:49.709Z,999.70
2023-03-05T00:12:49.701Z,999.70
2023-03-05T00:13:49.693Z,999.74
2023-03-05T00:14:49.686Z,999.67
2023-03-05T00:15:49.762Z,999.64
2023-03-05T00:16:49.670Z,999.68
2023-03-05T00:17:49.637Z,999.65
2023-03-05T00:18:49.653Z,999.64
2023-03-05T00:19:49.645Z,999.63
2023-03-05T00:20:49.617Z,999.66
2023-03-05T00:21:49.603Z,999.64
2023-03-05T00:22:49.584Z,999.63
2023-03-05T00:23:49.591Z,999.64
2023-03-05T00:24:49.564Z,999.60
2023-03-05T00:25:49.551Z,999.63
2023-03-05T00:26:49.562Z,999.62
2023-03-05T00:27:49.532Z,999.62
2023-03-05T00:28:49.520Z,999.63
2023-03-05T00:29:49.512Z,999.62
2023-03-05T00:30:49.602Z,999.57
2023-03-05T00:31:49.493Z,999.61
2023-03-05T00:32:49.502Z,999.59
2023-03-05T00:33:49.467Z,999.58
2023-03-05T00:34:49.490Z,999.61
2023-03-05T00:35:49.518Z,999.58
2023-03-05T00:36:49.442Z,999.53
2023-03-05T00:37:49.420Z,999.53
2023-03-05T00:38:49.412Z,999.50
2023-03-05T00:39:49.400Z,999.54
2023-03-05T00:40:49.414Z,999.46
2023-03-05T00:41:49.406Z,999.48
2023-03-05T00:42:49.368Z,999.50
2023-03-05T00:43:49.386Z,999.49
2023-03-05T00:44:49.361Z,999.49
2023-03-05T00:45:49.329Z,999.47
2023-03-05T00:46:49.397Z,999.46
2023-03-05T00:47:49.342Z,999.44
2023-03-05T00:48:49.347Z,999.43
2023-03-05T00:49:49.321Z,999.43
2023-03-05T00:50:49.293Z,999.38
2023-03-05T00:51:49.318Z,999.38
2023-03-05T00:52:49.265Z,999.36
2023-03-05T00:53:49.284Z,999.36
2023-03-05T00:54:49.236Z,999.34
2023-03-05T00:55:49.238Z,999.33
2023-03-05T00:56:49.227Z,999.35
2023-03-05T00:57:49.244Z,999.35
2023-03-05T00:58:49.194Z,999.32
2023-03-05T00:59:49.198Z,999.37
2023-03-05T01:00:49.169Z,999.33
2023-03-05T01:01:49.202Z,999.35
2023-03-05T01:02:49.202Z,999.38
2023-03-05T01:03:49.151Z,999.34
2023-03-05T01:04:49.148Z,999.35
2023-03-05T01:05:49.133Z,999.29
2023-03-05T01:06:49.136Z,999.33
2023-03-05T01:07:49.085Z,999.30
2023-03-05T01:08:49.065Z,999.34
2023-03-05T01:09:49.051Z,999.35
2023-03-05T01:10:49.074Z,999.32
2023-03-05T01:11:49.029Z,999.30
2023-03-05T01:12:49.018Z,999.25
2023-03-05T01:13:49.012Z,999.20
2023-03-05T01:14:48.999Z,999.22
2023-03-05T01:15:49.097Z,999.21
2023-03-05T01:16:48.979Z,999.18
2023-03-05T01:17:49.888Z,999.25
2023-03-05T01:18:48.985Z,999.20
2023-03-05T01:19:48.934Z,999.20
2023-03-05T01:20:48.924Z,999.16
2023-03-05T01:21:48.945Z,999.14
2023-03-05T01:22:48.924Z,999.09
2023-03-05T01:23:48.910Z,999.13
2023-03-05T01:24:48.870Z,999.08
2023-03-05T01:25:48.874Z,999.05
2023-03-05T01:26:48.866Z,999.06
2023-03-05T01:27:48.856Z,999.11
2023-03-05T01:28:48.879Z,999.03
2023-03-05T01:29:48.828Z,999.07
2023-03-05T01:30:48.828Z,999.08
2023-03-05T01:31:48.856Z,999.03
2023-03-05T01:32:48.787Z,999.04
2023-03-05T01:33:48.801Z,998.99
2023-03-05T01:34:48.797Z,999.00
2023-03-05T01:35:48.798Z,999.04
2023-03-05T01:36:48.775Z,998.97
2023-03-05T01:37:48.732Z,998.99
2023-03-05T01:38:48.743Z,999.02
2023-03-05T01:39:48.759Z,999.02
2023-03-05T01:40:48.721Z,998.96
2023-03-05T01:41:48.706Z,998.99
2023-03-05T01:42:48.669Z,998.97
2023-03-05T01:43:48.662Z,999.01
2023-03-05T01:44:48.679Z,998.95
2023-03-05T01:45:48.684Z,998.92
2023-03-05T01:46:48.650Z,998.90
2023-03-05T01:47:48.617Z,998.83
2023-03-05T01:48:48.650Z,998.81
2023-03-05T01:49:48.618Z,998.79
2023-03-05T01:50:48.593Z,998.75
2023-03-05T01:51:48.583Z,998.76
2023-03-05T01:52:48.573Z,998.70
2023-03-05T01:53:48.576Z,998.78
2023-03-05T01:54:48.584Z,998.75
2023-03-05T01:55:48.691Z,998.72
2023-03-05T01:56:48.556Z,998.69
2023-03-05T01:57:48.506Z,998.66
2023-03-05T01:58:48.694Z,998.65
2023-03-05T01:59:48.507Z,998.65
2023-03-05T02:00:48.609Z,998.65
2023-03-05T02:01:48.481Z,998.61
2023-03-05T02:02:48.455Z,998.56
2023-03-05T02:03:48.538Z,998.55
2023-03-05T02:04:48.469Z,998.52
2023-03-05T02:05:48.464Z,998.51
2023-03-05T02:06:48.411Z,998.52
2023-03-05T02:07:48.405Z,998.56
2023-03-05T02:08:48.393Z,998.54
2023-03-05T02:09:48.395Z,998.55
2023-03-05T02:10:48.386Z,998.54
2023-03-05T02:11:48.451Z,998.54
2023-03-05T02:12:48.344Z,998.57
2023-03-05T02:13:48.344Z,998.59
2023-03-05T02:14:48.381Z,998.53
2023-03-05T02:15:48.325Z,998.56
2023-03-05T02:16:48.355Z,998.58
2023-03-05T02:17:48.299Z,998.58
2023-03-05T02:18:48.276Z,998.55
2023-03-05T02:19:48.299Z,998.57
2023-03-05T02:20:48.283Z,998.54
2023-03-05T02:21:48.282Z,998.56
2023-03-05T02:22:48.240Z,998.51
2023-03-05T02:23:48.236Z,998.53
2023-03-05T02:24:48.221Z,998.48
2023-03-05T02:25:48.203Z,998.51
2023-03-05T02:26:48.237Z,998.51
2023-03-05T02:27:48.203Z,998.48
2023-03-05T02:28:48.166Z,998.45
2023-03-05T02:29:48.169Z,998.49
2023-03-05T02:30:48.173Z,998.46
2023-03-05T02:31:48.168Z,998.47
2023-03-05T02:32:48.312Z,998.40
2023-03-05T02:33:48.145Z,998.43
2023-03-05T02:34:48.120Z,998.40
2023-03-05T02:35:48.190Z,998.41
2023-03-05T02:36:48.130Z,998.41
2023-03-05T02:37:48.074Z,998.37
2023-03-05T02:38:48.066Z,998.37
2023-03-05T02:39:48.052Z,998.36
2023-03-05T02:40:48.036Z,998.25
2023-03-05T02:41:48.066Z,998.38
2023-03-05T02:42:48.066Z,998.34
2023-03-05T02:43:48.011Z,998.30
2023-03-05T02:44:48.003Z,998.26
2023-03-05T02:45:48.090Z,998.26
2023-03-05T02:46:47.977Z,998.26
2023-03-05T02:47:47.985Z,998.26
2023-03-05T02:48:47.974Z,998.27
2023-03-05T02:49:47.962Z,998.22
2023-03-05T02:50:47.958Z,998.18
2023-03-05T02:51:47.928Z,998.10
2023-03-05T02:52:47.906Z,998.16
2023-03-05T02:53:47.907Z,998.14
2023-03-05T02:54:47.894Z,998.16
2023-03-05T02:55:47.891Z,998.14
2023-03-05T02:56:47.898Z,998.09
2023-03-05T02:57:47.871Z,998.14
2023-03-05T02:58:47.860Z,998.08
2023-03-05T02:59:47.888Z,998.10
2023-03-05T03:00:47.832Z,998.09
2023-03-05T03:01:47.800Z,998.08
2023-03-05T03:02:47.798Z,998.08
2023-03-05T03:03:47.791Z,998.08
2023-03-05T03:04:47.807Z,998.08
2023-03-05T03:05:47.757Z,998.04
2023-03-05T03:06:47.760Z,998.05
2023-03-05T03:07:47.752Z,998.03
2023-03-05T03:08:47.724Z,998.04
2023-03-05T03:09:47.738Z,998.01
2023-03-05T03:10:47.715Z,997.98
2023-03-05T03:11:47.693Z,997.97
2023-03-05T03:12:47.685Z,997.93
2023-03-05T03:13:47.672Z,997.95
2023-03-05T03:14:47.750Z,997.94
2023-03-05T03:15:47.654Z,997.92
2023-03-05T03:16:47.706Z,997.94
2023-03-05T03:17:47.684Z,997.93
2023-03-05T03:18:47.745Z,997.88
2023-03-05T03:19:47.604Z,997.87
2023-03-05T03:20:47.637Z,997.86
2023-03-05T03:21:47.588Z,997.88
2023-03-05T03:22:47.606Z,997.91
2023-03-05T03:23:47.567Z,997.88
2023-03-05T03:24:47.569Z,997.89
2023-03-05T03:25:47.542Z,997.88
2023-03-05T03:26:47.535Z,997.90
2023-03-05T03:27:47.557Z,997.86
2023-03-05T03:28:47.511Z,997.85
2023-03-05T03:29:47.516Z,997.83
2023-03-05T03:30:47.543Z,997.85
2023-03-05T03:31:47.478Z,997.83
2023-03-05T03:32:47.498Z,997.77
2023-03-05T03:33:47.471Z,997.80
2023-03-05T03:34:47.453Z,997.78
2023-03-05T03:35:47.730Z,997.77
2023-03-05T03:36:47.428Z,997.72
2023-03-05T03:37:47.411Z,997.77
2023-03-05T03:38:47.406Z,997.76
2023-03-05T03:39:47.399Z,997.72
2023-03-05T03:40:47.421Z,997.71
2023-03-05T03:41:47.394Z,997.68
2023-03-05T03:42:47.359Z,997.69
2023-03-05T03:43:47.351Z,997.69
2023-03-05T03:44:47.344Z,997.67
2023-03-05T03:45:47.401Z,997.62
2023-03-05T03:46:47.368Z,997.60
2023-03-05T03:47:47.323Z,997.59
2023-03-05T03:48:47.334Z,997.58
2023-03-05T03:49:47.295Z,997.54
2023-03-05T03:50:47.265Z,997.57
2023-03-05T03:51:47.288Z,997.55
2023-03-05T03:52:47.272Z,997.56
2023-03-05T03:53:47.277Z,997.54
2023-03-05T03:54:47.226Z,997.54
2023-03-05T03:55:47.235Z,997.49
2023-03-05T03:56:47.201Z,997.51
2023-03-05T03:57:47.227Z,997.45
2023-03-05T03:58:47.189Z,997.49
2023-03-05T03:59:47.168Z,997.49
2023-03-05T04:00:47.157Z,997.46
2023-03-05T04:01:47.180Z,997.48
2023-03-05T04:02:47.186Z,997.43
2023-03-05T04:03:47.169Z,997.42
2023-03-05T04:04:47.115Z,997.37
2023-03-05T04:05:47.108Z,997.43
2023-03-05T04:06:47.103Z,997.39
2023-03-05T04:07:47.105Z,997.39
2023-03-05T04:08:47.114Z,997.41
2023-03-05T04:09:47.062Z,997.36
2023-03-05T04:10:47.053Z,997.37
2023-03-05T04:11:47.063Z,997.37
2023-03-05T04:12:47.061Z,997.35
2023-03-05T04:13:47.041Z,997.38
2023-03-05T04:14:47.057Z,997.37
2023-03-05T04:15:47.028Z,997.38
2023-03-05T04:16:46.987Z,997.36
2023-03-05T04:17:46.973Z,997.34
2023-03-05T04:18:46.996Z,997.37
2023-03-05T04:19:46.974Z,997.35
2023-03-05T04:20:46.959Z,997.34
2023-03-05T04:21:46.936Z,997.32
2023-03-05T04:22:46.919Z,997.28
2023-03-05T04:23:46.931Z,997.34
2023-03-05T04:24:46.941Z,997.29
2023-03-05T04:25:46.883Z,997.27
2023-03-05T04:26:46.881Z,997.27
2023-03-05T04:27:46.884Z,997.23
2023-03-05T04:28:46.878Z,997.26
2023-03-05T04:29:46.867Z,997.20
2023-03-05T04:30:46.924Z,997.17
2023-03-05T04:31:46.828Z,997.17
2023-03-05T04:32:46.809Z,997.11
2023-03-05T04:33:46.815Z,997.16
2023-03-05T04:34:46.851Z,997.17
2023-03-05T04:35:46.853Z,997.15
2023-03-05T04:36:46.790Z,997.24
2023-03-05T04:37:46.780Z,997.21
2023-03-05T04:38:46.770Z,997.14
2023-03-05T04:39:46.787Z,997.09
2023-03-05T04:40:46.739Z,997.14
2023-03-05T04:41:46.814Z,997.07
2023-03-05T04:42:46.690Z,997.11
2023-03-05T04:43:46.696Z,997.04
2023-03-05T04:44:46.752Z,997.05
2023-03-05T04:45:46.660Z,997.02
2023-03-05T04:46:46.736Z,997.05
2023-03-05T04:47:46.637Z,997.01
2023-03-05T04:48:46.625Z,996.96
2023-03-05T04:49:46.622Z,996.94
2023-03-05T04:50:46.654Z,997.01
2023-03-05T04:51:46.625Z,997.03
2023-03-05T04:52:46.585Z,997.02
2023-03-05T04:53:46.586Z,996.99
2023-03-05T04:54:46.568Z,996.97
2023-03-05T04:55:46.561Z,996.93
2023-03-05T04:56:46.569Z,996.86
2023-03-05T04:57:46.529Z,996.89
2023-03-05T04:58:46.511Z,997.00
2023-03-05T04:59:46.506Z,996.95
2023-03-05T05:00:46.504Z,996.92
2023-03-05T05:01:46.530Z,996.93
2023-03-05T05:02:46.586Z,996.93
2023-03-05T05:03:46.466Z,996.92
2023-03-05T05:04:46.468Z,996.86
2023-03-05T05:05:46.439Z,996.85
2023-03-05T05:06:46.473Z,996.81
2023-03-05T05:07:46.412Z,996.77
2023-03-05T05:08:46.420Z,996.83
2023-03-05T05:09:46.387Z,996.74
2023-03-05T05:10:46.389Z,996.76
2023-03-05T05:11:46.369Z,996.81
2023-03-05T05:12:46.380Z,996.83
2023-03-05T05:13:46.353Z,996.80
2023-03-05T05:14:46.384Z,996.80
2023-03-05T05:15:46.329Z,996.78
2023-03-05T05:16:46.330Z,996.82
2023-03-05T05:17:46.306Z,996.79
2023-03-05T05:18:46.330Z,996.83
2023-03-05T05:19:46.315Z,996.76
2023-03-05T05:20:46.270Z,996.82
2023-03-05T05:21:46.269Z,996.79
2023-03-05T05:22:46.265Z,996.74
2023-03-05T05:23:46.256Z,996.70
2023-03-05T05:24:46.226Z,996.73
2023-03-05T05:25:46.221Z,996.73
2023-03-05T05:26:46.266Z,996.71
2023-03-05T05:27:46.201Z,996.70
2023-03-05T05:28:46.186Z,996.69
2023-03-05T05:29:46.171Z,996.69
2023-03-05T05:30:46.157Z,996.71
2023-03-05T05:31:46.282Z,996.71
2023-03-05T05:32:46.183Z,996.72
2023-03-05T05:33:48.111Z,996.68
2023-03-05T05:34:46.114Z,996.70
2023-03-05T05:35:46.137Z,996.68
2023-03-05T05:36:46.121Z,996.67
2023-03-05T05:37:46.120Z,996.71
2023-03-05T05:38:46.112Z,996.72
2023-03-05T05:39:46.065Z,996.71
2023-03-05T05:40:46.060Z,996.73
2023-03-05T05:41:46.155Z,996.70
2023-03-05T05:42:46.062Z,996.72
2023-03-05T05:43:46.028Z,996.64
2023-03-05T05:44:46.016Z,996.62
2023-03-05T05:45:46.202Z,996.64
2023-03-05T05:46:46.057Z,996.62
2023-03-05T05:47:45.979Z,996.57
2023-03-05T05:48:46.024Z,996.59
2023-03-05T05:49:45.970Z,996.61
2023-03-05T05:50:45.974Z,996.61
2023-03-05T05:51:45.945Z,996.62
2023-03-05T05:52:45.959Z,996.64
2023-03-05T05:53:45.920Z,996.63
2023-03-05T05:54:45.953Z,996.65
2023-03-05T05:55:45.918Z,996.66
2023-03-05T05:56:45.904Z,996.65
2023-03-05T05:57:45.872Z,996.67
2023-03-05T05:58:45.864Z,996.68
2023-03-05T05:59:45.850Z,996.68
2023-03-05T06:00:45.857Z,996.71
2023-03-05T06:01:45.896Z,996.68
2023-03-05T06:02:45.884Z,996.71
2023-03-05T06:03:45.807Z,996.67
2023-03-05T06:04:45.791Z,996.70
2023-03-05T06:05:45.809Z,996.69
2023-03-05T06:06:45.800Z,996.65
2023-03-05T06:07:45.773Z,996.63
2023-03-05T06:08:45.746Z,996.67
2023-03-05T06:09:45.751Z,996.65
2023-03-05T06:10:45.769Z,996.63
2023-03-05T06:11:45.752Z,996.61
2023-03-05T06:12:45.703Z,996.68
2023-03-05T06:13:45.693Z,996.64
2023-03-05T06:14:45.713Z,996.67
2023-03-05T06:15:45.680Z,996.63
2023-03-05T06:16:45.717Z,996.60
2023-03-05T06:17:45.654Z,996.65
2023-03-05T06:18:45.638Z,996.61
2023-03-05T06:19:45.647Z,996.62
2023-03-05T06:20:45.616Z,996.65
2023-03-05T06:21:45.624Z,996.65
2023-03-05T06:22:45.593Z,996.64
2023-03-05T06:23:45.582Z,996.60
2023-03-05T06:24:45.580Z,996.69
2023-03-05T06:25:45.561Z,996.63
2023-03-05T06:26:45.583Z,996.65
2023-03-05T06:27:45.569Z,996.64
2023-03-05T06:28:45.531Z,996.62
2023-03-05T06:29:45.517Z,996.65
2023-03-05T06:30:45.574Z,996.57
2023-03-05T06:31:45.504Z,996.59
2023-03-05T06:32:45.516Z,996.60
2023-03-05T06:33:45.476Z,996.60
2023-03-05T06:34:45.467Z,996.66
2023-03-05T06:35:45.527Z,996.60
2023-03-05T06:36:45.463Z,996.62
2023-03-05T06:37:45.455Z,996.55
2023-03-05T06:38:45.428Z,996.56
2023-03-05T06:39:45.423Z,996.52
2023-03-05T06:40:45.395Z,996.54
2023-03-05T06:41:45.388Z,996.52
2023-03-05T06:42:45.393Z,996.51
2023-03-05T06:43:45.386Z,996.52
2023-03-05T06:44:47.179Z,996.49
2023-03-05T06:45:45.400Z,996.46
2023-03-05T06:46:45.369Z,996.54
2023-03-05T06:47:45.342Z,996.50
2023-03-05T06:48:45.331Z,996.54
2023-03-05T06:49:45.330Z,996.55
2023-03-05T06:50:45.306Z,996.54
2023-03-05T06:51:45.309Z,996.51
2023-03-05T06:52:45.323Z,996.53
2023-03-05T06:53:46.765Z,996.53
2023-03-05T06:54:45.238Z,996.45
2023-03-05T06:55:45.282Z,996.44
2023-03-05T06:56:45.246Z,996.38
2023-03-05T06:57:45.309Z,996.39
2023-03-05T06:58:45.219Z,996.42
2023-03-05T06:59:45.192Z,996.48
2023-03-05T07:00:45.184Z,996.52
2023-03-05T07:01:45.192Z,996.48
2023-03-05T07:02:45.185Z,996.50
2023-03-05T07:03:45.161Z,996.44
2023-03-05T07:04:45.146Z,996.42
2023-03-05T07:05:45.151Z,996.39
2023-03-05T07:06:45.146Z,996.42
2023-03-05T07:07:45.106Z,996.39
2023-03-05T07:08:45.083Z,996.38
2023-03-05T07:09:45.090Z,996.39
2023-03-05T07:10:45.081Z,996.39
2023-03-05T07:11:45.095Z,996.39
2023-03-05T07:12:45.062Z,996.42
2023-03-05T07:13:45.032Z,996.37
2023-03-05T07:14:45.063Z,996.38
2023-03-05T07:15:45.035Z,996.41
2023-03-05T07:16:45.021Z,996.38
2023-03-05T07:17:44.984Z,996.39
2023-03-05T07:18:44.999Z,996.44
2023-03-05T07:19:44.996Z,996.43
2023-03-05T07:20:44.947Z,996.42
2023-03-05T07:21:44.957Z,996.40
2023-03-05T07:22:44.926Z,996.37
2023-03-05T07:23:44.937Z,996.38
2023-03-05T07:24:44.943Z,996.37
2023-03-05T07:25:44.901Z,996.40
2023-03-05T07:26:46.121Z,996.41
2023-03-05T07:27:44.885Z,996.39
2023-03-05T07:28:44.864Z,996.38
2023-03-05T07:29:44.853Z,996.40
2023-03-05T07:30:44.906Z,996.42
2023-03-05T07:31:44.927Z,996.40
2023-03-05T07:32:44.819Z,996.42
2023-03-05T07:33:44.809Z,996.35
2023-03-05T07:34:44.826Z,996.37
2023-03-05T07:35:44.863Z,996.38
2023-03-05T07:36:44.778Z,996.40
2023-03-05T07:37:44.804Z,996.43
2023-03-05T07:38:44.801Z,996.36
2023-03-05T07:39:47.120Z,996.35
2023-03-05T07:40:44.736Z,996.36
2023-03-05T07:41:44.741Z,996.35
2023-03-05T07:42:44.853Z,996.35
2023-03-05T07:43:44.722Z,996.29
2023-03-05T07:44:44.701Z,996.31
2023-03-05T07:45:44.886Z,996.30
2023-03-05T07:46:44.691Z,996.27
2023-03-05T07:47:44.673Z,996.32
2023-03-05T07:48:44.667Z,996.28
2023-03-05T07:49:44.632Z,996.29
2023-03-05T07:50:44.643Z,996.27
2023-03-05T07:51:44.633Z,996.25
2023-03-05T07:52:44.625Z,996.20
2023-03-05T07:53:44.591Z,996.22
2023-03-05T07:54:44.589Z,996.21
2023-03-05T07:55:44.643Z,996.25
2023-03-05T07:56:44.559Z,996.20
2023-03-05T07:57:44.586Z,996.24
2023-03-05T07:58:45.482Z,996.22
2023-03-05T07:59:44.522Z,996.21
2023-03-05T08:00:44.570Z,996.17
2023-03-05T08:01:44.528Z,996.16
2023-03-05T08:02:44.554Z,996.11
2023-03-05T08:03:44.638Z,996.13
2023-03-05T08:04:44.484Z,996.16
2023-03-05T08:05:44.479Z,996.14
2023-03-05T08:06:44.481Z,996.16
2023-03-05T08:07:44.584Z,996.13
2023-03-05T08:08:44.469Z,996.13
2023-03-05T08:09:44.449Z,996.16
2023-03-05T08:10:44.451Z,996.11
2023-03-05T08:11:44.408Z,996.14
2023-03-05T08:12:44.380Z,996.11
2023-03-05T08:13:44.394Z,996.08
2023-03-05T08:14:44.364Z,996.08
2023-03-05T08:15:44.424Z,996.07
2023-03-05T08:16:46.339Z,996.10
2023-03-05T08:17:44.346Z,996.07
2023-03-05T08:18:44.342Z,996.12
2023-03-05T08:19:44.308Z,996.03
2023-03-05T08:20:44.294Z,996.04
2023-03-05T08:21:44.327Z,996.02
2023-03-05T08:22:44.311Z,995.97
2023-03-05T08:23:44.263Z,995.96
2023-03-05T08:24:44.493Z,995.91
2023-03-05T08:25:44.242Z,995.95
2023-03-05T08:26:44.241Z,995.89
2023-03-05T08:27:44.233Z,995.89
2023-03-05T08:28:44.215Z,995.94
2023-03-05T08:29:44.194Z,995.91
2023-03-05T08:30:44.206Z,995.92
2023-03-05T08:31:44.195Z,995.95
2023-03-05T08:32:44.168Z,995.93
2023-03-05T08:33:44.145Z,995.99
2023-03-05T08:34:44.177Z,995.95
2023-03-05T08:35:44.201Z,995.94
2023-03-05T08:36:44.121Z,995.95
2023-03-05T08:37:44.105Z,995.97
2023-03-05T08:38:44.099Z,995.99
2023-03-05T08:39:44.093Z,995.92
2023-03-05T08:40:44.093Z,995.97
2023-03-05T08:41:44.061Z,995.98
2023-03-05T08:42:44.045Z,995.96
2023-03-05T08:43:44.053Z,995.95
2023-03-05T08:44:44.047Z,995.88
2023-03-05T08:45:44.047Z,995.89
2023-03-05T08:46:44.059Z,995.88
2023-03-05T08:47:44.011Z,995.93
2023-03-05T08:48:44.001Z,995.83
2023-03-05T08:49:43.983Z,995.84
2023-03-05T08:50:44.009Z,995.85
2023-03-05T08:51:43.959Z,995.82
2023-03-05T08:52:44.010Z,995.83
2023-03-05T08:53:43.934Z,995.81
2023-03-05T08:54:43.928Z,995.81
2023-03-05T08:55:44.331Z,995.85
2023-03-05T08:56:43.897Z,995.82
2023-03-05T08:57:43.892Z,995.83
2023-03-05T08:58:43.883Z,995.82
2023-03-05T08:59:43.887Z,995.78
2023-03-05T09:00:43.855Z,995.79
2023-03-05T09:01:43.947Z,995.82
2023-03-05T09:02:43.933Z,995.77
2023-03-05T09:03:43.906Z,995.77
2023-03-05T09:04:43.814Z,995.80
2023-03-05T09:05:43.823Z,995.78
2023-03-05T09:06:43.811Z,995.77
2023-03-05T09:07:43.800Z,995.75
2023-03-05T09:08:43.790Z,995.73
2023-03-05T09:09:43.749Z,995.77
2023-03-05T09:10:43.777Z,995.71
2023-03-05T09:11:43.775Z,995.79
2023-03-05T09:12:43.730Z,995.73
2023-03-05T09:13:43.724Z,995.80
2023-03-05T09:14:43.698Z,995.81
2023-03-05T09:15:43.699Z,995.74
2023-03-05T09:16:43.762Z,995.68
2023-03-05T09:17:43.679Z,995.72
2023-03-05T09:18:43.681Z,995.75
2023-03-05T09:19:43.655Z,995.65
2023-03-05T09:20:43.632Z,995.71
2023-03-05T09:21:43.645Z,995.69
2023-03-05T09:22:43.641Z,995.71
2023-03-05T09:23:43.609Z,995.65
2023-03-05T09:24:43.609Z,995.70
2023-03-05T09:25:43.585Z,995.62
2023-03-05T09:26:43.588Z,995.64
2023-03-05T09:27:43.581Z,995.61
2023-03-05T09:28:43.536Z,995.57
2023-03-05T09:29:43.539Z,995.56
2023-03-05T09:30:43.521Z,995.57
2023-03-05T09:31:43.617Z,995.61
2023-03-05T09:32:43.612Z,995.62
2023-03-05T09:33:43.488Z,995.58
2023-03-05T09:34:43.490Z,995.60
2023-03-05T09:35:43.508Z,995.65
2023-03-05T09:36:43.529Z,995.62
2023-03-05T09:37:43.442Z,995.63
2023-03-05T09:38:43.448Z,995.65
2023-03-05T09:39:43.419Z,995.60
2023-03-05T09:40:43.426Z,995.59
2023-03-05T09:41:43.413Z,995.63
2023-03-05T09:42:43.427Z,995.59
2023-03-05T09:43:43.427Z,995.62
2023-03-05T09:44:43.362Z,995.63
2023-03-05T09:45:43.405Z,995.66
2023-03-05T09:46:43.353Z,995.62
2023-03-05T09:47:43.349Z,995.63
2023-03-05T09:48:43.348Z,995.69
2023-03-05T09:49:43.310Z,995.67
2023-03-05T09:50:43.298Z,995.67
2023-03-05T09:51:43.284Z,995.59
2023-03-05T09:52:43.290Z,995.63
2023-03-05T09:53:43.310Z,995.64
2023-03-05T09:54:43.282Z,995.65
2023-03-05T09:55:43.241Z,995.68
2023-03-05T09:56:43.245Z,995.69
2023-03-05T09:57:43.221Z,995.63
2023-03-05T09:58:43.228Z,995.66
2023-03-05T09:59:43.197Z,995.65
2023-03-05T10:00:43.212Z,995.67
2023-03-05T10:01:43.186Z,995.68
2023-03-05T10:02:43.202Z,995.68
2023-03-05T10:03:43.197Z,995.66
2023-03-05T10:04:43.169Z,995.63
2023-03-05T10:05:43.135Z,995.71
2023-03-05T10:06:43.110Z,995.68
2023-03-05T10:07:43.106Z,995.69
2023-03-05T10:08:43.101Z,995.70
2023-03-05T10:09:43.132Z,995.66
2023-03-05T10:10:43.093Z,995.70
2023-03-05T10:11:43.071Z,995.66
2023-03-05T10:12:43.184Z,995.68
2023-03-05T10:13:43.045Z,995.65
2023-03-05T10:14:43.039Z,995.63
2023-03-05T10:15:43.038Z,995.64
2023-03-05T10:16:43.044Z,995.68
2023-03-05T10:17:43.059Z,995.61
2023-03-05T10:18:42.988Z,995.64
2023-03-05T10:19:42.988Z,995.68
2023-03-05T10:20:42.980Z,995.57
2023-03-05T10:21:42.984Z,995.56
2023-03-05T10:22:42.953Z,995.55
2023-03-05T10:23:42.939Z,995.48
2023-03-05T10:24:42.936Z,995.50
2023-03-05T10:25:42.911Z,995.47
2023-03-05T10:26:42.949Z,995.48
2023-03-05T10:27:42.931Z,995.51
2023-03-05T10:28:42.899Z,995.49
2023-03-05T10:29:42.897Z,995.51
2023-03-05T10:30:42.848Z,995.43
2023-03-05T10:31:42.927Z,995.40
2023-03-05T10:32:42.887Z,995.40
2023-03-05T10:33:42.817Z,995.45
2023-03-05T10:34:42.820Z,995.38
2023-03-05T10:35:42.855Z,995.40
2023-03-05T10:36:42.787Z,995.36
2023-03-05T10:37:42.785Z,995.29
2023-03-05T10:38:42.792Z,995.29
2023-03-05T10:39:42.757Z,995.29
2023-03-05T10:40:42.739Z,995.24
2023-03-05T10:41:42.753Z,995.25
2023-03-05T10:42:42.752Z,995.20
2023-03-05T10:43:42.730Z,995.25
2023-03-05T10:44:42.691Z,995.22
2023-03-05T10:45:42.701Z,995.24
2023-03-05T10:46:42.682Z,995.24
2023-03-05T10:47:42.711Z,995.20
2023-03-05T10:48:42.677Z,995.23
2023-03-05T10:49:42.656Z,995.20
2023-03-05T10:50:42.626Z,995.13
2023-03-05T10:51:42.615Z,995.20
2023-03-05T10:52:42.612Z,995.17
2023-03-05T10:53:42.620Z,995.12
2023-03-05T10:54:42.606Z,995.11
2023-03-05T10:55:42.589Z,995.09
2023-03-05T10:56:42.642Z,995.06
2023-03-05T10:57:42.582Z,995.10
2023-03-05T10:58:42.563Z,995.05
2023-03-05T10:59:42.537Z,995.03
2023-03-05T11:00:42.548Z,995.01
2023-03-05T11:01:42.573Z,995.03
2023-03-05T11:02:42.545Z,995.03
2023-03-05T11:03:42.492Z,995.01
2023-03-05T11:04:42.479Z,994.94
2023-03-05T11:05:42.535Z,995.00
2023-03-05T11:06:42.458Z,994.99
2023-03-05T11:07:42.462Z,995.00
2023-03-05T11:08:42.440Z,994.99
2023-03-05T11:09:42.421Z,994.92
2023-03-05T11:10:42.413Z,994.91
2023-03-05T11:11:42.410Z,994.94
2023-03-05T11:12:42.395Z,994.92
2023-03-05T11:13:42.368Z,994.94
2023-03-05T11:14:42.397Z,994.94
2023-03-05T11:15:42.389Z,994.94
2023-03-05T11:16:42.367Z,994.85
2023-03-05T11:17:42.339Z,994.81
2023-03-05T11:18:42.329Z,994.85
2023-03-05T11:19:42.303Z,994.86
2023-03-05T11:20:42.291Z,994.81
2023-03-05T11:21:42.308Z,994.76
2023-03-05T11:22:42.267Z,994.75
2023-03-05T11:23:42.265Z,994.76
2023-03-05T11:24:42.246Z,994.71
2023-03-05T11:25:42.263Z,994.66
2023-03-05T11:26:42.225Z,994.68
2023-03-05T11:27:42.215Z,994.70
2023-03-05T11:28:42.251Z,994.70
2023-03-05T11:29:42.204Z,994.68
2023-03-05T11:30:42.305Z,994.69
2023-03-05T11:31:42.170Z,994.67
2023-03-05T11:32:42.178Z,994.66
2023-03-05T11:33:42.160Z,994.69
2023-03-05T11:34:42.171Z,994.66
2023-03-05T11:35:42.259Z,994.68
2023-03-05T11:36:42.111Z,994.63
2023-03-05T11:37:42.136Z,994.65
2023-03-05T11:38:42.096Z,994.57
2023-03-05T11:39:42.083Z,994.51
2023-03-05T11:40:42.104Z,994.52
2023-03-05T11:41:42.160Z,994.61
2023-03-05T11:42:42.060Z,994.49
2023-03-05T11:43:42.074Z,994.51
2023-03-05T11:44:42.070Z,994.48
2023-03-05T11:45:42.036Z,994.51
2023-03-05T11:46:42.037Z,994.44
2023-03-05T11:47:41.989Z,994.47
2023-03-05T11:48:42.003Z,994.47
2023-03-05T11:49:41.977Z,994.42
2023-03-05T11:50:41.958Z,994.49
2023-03-05T11:51:41.969Z,994.44
2023-03-05T11:52:41.936Z,994.38
2023-03-05T11:53:41.924Z,994.42
2023-03-05T11:54:41.931Z,994.38
2023-03-05T11:55:41.921Z,994.34
2023-03-05T11:56:41.933Z,994.38
2023-03-05T11:57:41.931Z,994.34
2023-03-05T11:58:41.870Z,994.33
2023-03-05T11:59:41.883Z,994.31
2023-03-05T12:00:41.881Z,994.27
2023-03-05T12:01:41.852Z,994.30
2023-03-05T12:02:41.969Z,994.22
2023-03-05T12:03:42.097Z,994.23
2023-03-05T12:04:41.827Z,994.25
2023-03-05T12:05:41.879Z,994.22
2023-03-05T12:06:42.575Z,994.19
2023-03-05T12:07:41.775Z,994.16
2023-03-05T12:08:41.765Z,994.10
2023-03-05T12:09:42.351Z,994.16
2023-03-05T12:10:41.982Z,994.13
2023-03-05T12:11:42.208Z,994.13
2023-03-05T12:12:42.068Z,994.11
2023-03-05T12:13:43.168Z,994.10
2023-03-05T12:14:41.698Z,994.10
2023-03-05T12:15:41.823Z,994.07
2023-03-05T12:16:41.711Z,994.10
2023-03-05T12:17:42.228Z,994.11
2023-03-05T12:18:41.668Z,994.11
2023-03-05T12:19:41.693Z,994.13
2023-03-05T12:20:41.941Z,994.12
2023-03-05T12:21:41.648Z,994.11
2023-03-05T12:22:42.453Z,994.13
2023-03-05T12:23:42.069Z,994.10
2023-03-05T12:24:41.602Z,994.07
2023-03-05T12:25:41.734Z,994.11
2023-03-05T12:26:41.914Z,994.07
2023-03-05T12:27:41.562Z,994.13
2023-03-05T12:28:41.807Z,994.05